createdAt,value
2022-08-09T00:00:06.228Z,16.19
2022-08-09T00:01:04.439Z,16.19
2022-08-09T00:02:04.467Z,16.19
2022-08-09T00:03:10.951Z,16.19
2022-08-09T00:04:11.030Z,16.12
2022-08-09T00:06:17.017Z,16.12
2022-08-09T00:06:17.101Z,16.12
2022-08-09T00:07:03.780Z,16.12
2022-08-09T00:08:03.748Z,16.12
2022-08-09T00:09:03.842Z,16.06
2022-08-09T00:10:03.919Z,16.06
2022-08-09T00:11:05.695Z,16.06
2022-08-09T00:12:04.920Z,16.00
2022-08-09T00:13:04.603Z,16.00
2022-08-09T00:14:04.466Z,16.00
2022-08-09T00:15:06.489Z,16.00
2022-08-09T00:16:04.479Z,16.00
2022-08-09T00:17:04.466Z,15.94
2022-08-09T00:18:04.842Z,15.94
2022-08-09T00:19:03.600Z,15.94
2022-08-09T00:20:03.606Z,15.94
2022-08-09T00:21:03.758Z,15.94
2022-08-09T00:22:04.206Z,15.88
2022-08-09T00:23:04.908Z,15.88
2022-08-09T00:24:03.981Z,15.88
2022-08-09T00:25:04.087Z,15.88
2022-08-09T00:26:04.844Z,15.81
2022-08-09T00:27:04.078Z,15.81
2022-08-09T00:28:04.233Z,15.81
2022-08-09T00:29:12.254Z,15.81
2022-08-09T00:30:16.652Z,15.75
2022-08-09T00:31:09.468Z,15.75
2022-08-09T00:32:04.232Z,15.75
2022-08-09T00:33:04.080Z,15.75
2022-08-09T00:34:03.985Z,15.75
2022-08-09T00:35:04.070Z,15.69
2022-08-09T00:36:04.076Z,15.69
2022-08-09T00:37:04.166Z,15.69
2022-08-09T00:38:04.017Z,15.69
2022-08-09T00:39:04.632Z,15.69
2022-08-09T00:40:10.466Z,15.69
2022-08-09T00:41:04.396Z,15.69
2022-08-09T00:44:08.402Z,15.62
2022-08-09T00:44:08.424Z,15.62
2022-08-09T00:44:08.679Z,15.62
2022-08-09T00:45:14.789Z,15.56
2022-08-09T00:46:03.826Z,15.56
2022-08-09T00:47:05.275Z,15.56
2022-08-09T00:48:04.297Z,15.50
2022-08-09T00:49:04.392Z,15.50
2022-08-09T00:50:04.307Z,15.50
2022-08-09T00:51:10.356Z,15.50
2022-08-09T00:52:05.079Z,15.50
2022-08-09T00:53:08.801Z,15.50
2022-08-09T00:54:04.465Z,15.44
2022-08-09T00:55:03.424Z,15.44
2022-08-09T00:56:05.936Z,15.44
2022-08-09T00:57:08.704Z,15.44
2022-08-09T00:58:03.588Z,15.38
2022-08-09T00:59:03.511Z,15.38
2022-08-09T01:00:05.247Z,15.38
2022-08-09T01:01:03.613Z,15.38
2022-08-09T01:02:03.595Z,15.31
2022-08-09T01:03:03.685Z,15.31
2022-08-09T01:04:03.686Z,15.31
2022-08-09T01:05:03.642Z,15.31
2022-08-09T01:06:03.866Z,15.31
2022-08-09T01:07:03.761Z,15.25
2022-08-09T01:08:03.909Z,15.25
2022-08-09T01:09:03.853Z,15.25
2022-08-09T01:10:03.831Z,15.19
2022-08-09T01:11:03.829Z,15.19
2022-08-09T01:12:03.912Z,15.19
2022-08-09T01:13:03.910Z,15.19
2022-08-09T01:14:03.998Z,15.19
2022-08-09T01:15:05.805Z,15.19
2022-08-09T01:16:04.084Z,15.19
2022-08-09T01:17:04.266Z,15.12
2022-08-09T01:18:04.169Z,15.12
2022-08-09T01:19:04.822Z,15.12
2022-08-09T01:20:04.341Z,15.12
2022-08-09T01:21:04.317Z,15.12
2022-08-09T01:22:04.247Z,15.06
2022-08-09T01:23:03.754Z,15.06
2022-08-09T01:24:05.069Z,15.06
2022-08-09T01:25:04.230Z,15.06
2022-08-09T01:26:04.308Z,15.00
2022-08-09T01:27:04.336Z,15.00
2022-08-09T01:28:04.395Z,15.00
2022-08-09T01:29:03.506Z,15.00
2022-08-09T01:30:03.599Z,14.94
2022-08-09T01:31:03.603Z,14.94
2022-08-09T01:32:28.238Z,14.94
2022-08-09T01:33:04.237Z,14.94
2022-08-09T01:34:04.153Z,14.94
2022-08-09T01:35:07.341Z,14.94
2022-08-09T01:36:04.308Z,14.88
2022-08-09T01:37:04.328Z,14.88
2022-08-09T01:38:06.129Z,14.88
2022-08-09T01:39:03.550Z,14.81
2022-08-09T01:40:03.604Z,14.81
2022-08-09T01:41:05.496Z,14.81
2022-08-09T01:42:06.390Z,14.81
2022-08-09T01:43:03.588Z,14.81
2022-08-09T01:44:03.507Z,14.75
2022-08-09T01:45:03.595Z,14.75
2022-08-09T01:46:03.607Z,14.75
2022-08-09T01:47:03.817Z,14.75
2022-08-09T01:48:05.831Z,14.75
2022-08-09T01:49:09.376Z,14.69
2022-08-09T01:50:06.387Z,14.69
2022-08-09T01:51:03.933Z,14.69
2022-08-09T01:52:07.177Z,14.69
2022-08-09T01:53:19.074Z,14.69
2022-08-09T01:54:04.075Z,14.62
2022-08-09T01:55:03.829Z,14.62
2022-08-09T01:56:03.921Z,14.62
2022-08-09T01:57:04.313Z,14.56
2022-08-09T01:58:03.921Z,14.56
2022-08-09T01:59:03.944Z,14.56
2022-08-09T02:00:08.799Z,14.56
2022-08-09T02:01:04.022Z,14.56
2022-08-09T02:02:04.103Z,14.50
2022-08-09T02:03:04.062Z,14.56
2022-08-09T02:04:03.994Z,14.50
2022-08-09T02:05:05.810Z,14.50
2022-08-09T02:06:06.689Z,14.50
2022-08-09T02:07:04.166Z,14.44
2022-08-09T02:08:36.221Z,14.50
2022-08-09T02:09:04.016Z,14.44
2022-08-09T02:10:04.336Z,14.44
2022-08-09T02:11:03.833Z,14.44
2022-08-09T02:12:03.996Z,14.44
2022-08-09T02:13:04.063Z,14.44
2022-08-09T02:14:06.827Z,14.44
2022-08-09T02:15:06.132Z,14.44
2022-08-09T02:16:04.082Z,14.44
2022-08-09T02:17:14.914Z,14.38
2022-08-09T02:19:04.325Z,14.38
2022-08-09T02:20:04.313Z,14.38
2022-08-09T02:21:04.321Z,14.38
2022-08-09T02:22:04.387Z,14.31
2022-08-09T02:23:04.322Z,14.31
2022-08-09T02:24:04.310Z,14.31
2022-08-09T02:25:04.397Z,14.31
2022-08-09T02:26:04.393Z,14.31
2022-08-09T02:27:04.475Z,14.31
2022-08-09T02:28:05.200Z,14.31
2022-08-09T02:29:04.486Z,14.25
2022-08-09T02:30:03.591Z,14.25
2022-08-09T02:31:03.600Z,14.25
2022-08-09T02:32:03.599Z,14.25
2022-08-09T02:33:03.515Z,14.19
2022-08-09T02:34:07.628Z,14.19
2022-08-09T02:35:03.612Z,14.19
2022-08-09T02:36:04.384Z,14.12
2022-08-09T02:37:03.531Z,14.12
2022-08-09T02:38:03.505Z,14.12
2022-08-09T02:39:04.497Z,14.12
2022-08-09T02:40:03.590Z,14.12
2022-08-09T02:41:03.680Z,14.12
2022-08-09T02:42:04.305Z,14.12
2022-08-09T02:43:04.471Z,14.12
2022-08-09T02:44:06.573Z,14.12
2022-08-09T02:45:03.604Z,14.12
2022-08-09T02:46:03.753Z,14.12
2022-08-09T02:47:04.171Z,14.06
2022-08-09T02:48:04.028Z,14.06
2022-08-09T02:49:03.994Z,14.06
2022-08-09T02:50:03.949Z,14.06
2022-08-09T02:51:03.823Z,14.06
2022-08-09T02:52:03.863Z,14.00
2022-08-09T02:53:03.916Z,14.00
2022-08-09T02:54:03.922Z,14.00
2022-08-09T02:55:20.500Z,14.00
2022-08-09T02:56:03.747Z,14.00
2022-08-09T02:57:13.812Z,14.00
2022-08-09T02:58:32.144Z,14.00
2022-08-09T02:59:03.944Z,13.94
2022-08-09T03:00:20.506Z,13.94
2022-08-09T03:01:04.087Z,13.94
2022-08-09T03:02:06.519Z,13.94
2022-08-09T03:03:03.952Z,13.94
2022-08-09T03:04:13.459Z,13.88
2022-08-09T03:05:04.100Z,13.88
2022-08-09T03:06:03.984Z,13.88
2022-08-09T03:07:07.393Z,13.88
2022-08-09T03:08:04.160Z,13.88
2022-08-09T03:09:04.236Z,13.81
2022-08-09T03:10:04.239Z,13.81
2022-08-09T03:11:04.353Z,13.75
2022-08-09T03:12:09.932Z,13.75
2022-08-09T03:13:08.368Z,13.75
2022-08-09T03:14:04.327Z,13.75
2022-08-09T03:15:04.421Z,13.75
2022-08-09T03:16:06.974Z,13.75
2022-08-09T03:17:05.538Z,13.75
2022-08-09T03:18:09.656Z,13.75
2022-08-09T03:19:04.326Z,13.75
2022-08-09T03:20:05.114Z,13.69
2022-08-09T03:21:03.944Z,13.69
2022-08-09T03:22:04.004Z,13.69
2022-08-09T03:23:14.796Z,13.69
2022-08-09T03:24:05.114Z,13.69
2022-08-09T03:25:06.780Z,13.62
2022-08-09T03:26:04.676Z,13.62
2022-08-09T03:27:04.502Z,13.62
2022-08-09T03:28:04.408Z,13.56
2022-08-09T03:29:09.757Z,13.56
2022-08-09T03:30:04.436Z,13.56
2022-08-09T03:31:04.351Z,13.56
2022-08-09T03:32:03.628Z,13.56
2022-08-09T03:33:05.439Z,13.50
2022-08-09T03:34:03.783Z,13.50
2022-08-09T03:35:04.908Z,13.50
2022-08-09T03:36:12.112Z,13.50
2022-08-09T03:37:10.633Z,13.50
2022-08-09T03:38:04.470Z,13.50
2022-08-09T03:39:04.645Z,13.50
2022-08-09T03:40:04.927Z,13.44
2022-08-09T03:41:04.265Z,13.44
2022-08-09T03:42:06.302Z,13.44
2022-08-09T03:43:04.386Z,13.44
2022-08-09T03:44:08.643Z,13.44
2022-08-09T03:45:03.529Z,13.44
2022-08-09T03:46:18.655Z,13.38
2022-08-09T03:47:03.954Z,13.44
2022-08-09T03:48:04.193Z,13.44
2022-08-09T03:49:07.797Z,13.38
2022-08-09T03:50:04.380Z,13.38
2022-08-09T03:51:04.183Z,13.38
2022-08-09T03:52:04.436Z,13.38
2022-08-09T03:53:04.385Z,13.38
2022-08-09T03:54:04.588Z,13.38
2022-08-09T03:55:03.740Z,13.38
2022-08-09T03:56:03.678Z,13.31
2022-08-09T03:57:04.143Z,13.31
2022-08-09T03:58:14.776Z,13.31
2022-08-09T03:59:04.034Z,13.31
2022-08-09T04:00:05.867Z,13.31
2022-08-09T04:01:04.118Z,13.31
2022-08-09T04:02:04.237Z,13.31
2022-08-09T04:03:04.327Z,13.31
2022-08-09T04:04:09.619Z,13.31
2022-08-09T04:05:05.749Z,13.31
2022-08-09T04:06:04.534Z,13.31
2022-08-09T04:07:03.598Z,13.31
2022-08-09T04:08:03.918Z,13.31
2022-08-09T04:09:04.012Z,13.31
2022-08-09T04:10:03.707Z,13.31
2022-08-09T04:11:04.088Z,13.31
2022-08-09T04:12:04.125Z,13.31
2022-08-09T04:13:04.700Z,13.31
2022-08-09T04:14:36.818Z,13.31
2022-08-09T04:15:11.296Z,13.31
2022-08-09T04:16:18.979Z,13.31
2022-08-09T04:17:03.753Z,13.31
2022-08-09T04:18:04.013Z,13.31
2022-08-09T04:19:04.143Z,13.31
2022-08-09T04:20:03.920Z,13.31
2022-08-09T04:21:04.031Z,13.31
2022-08-09T04:22:04.062Z,13.38
2022-08-09T04:23:09.866Z,13.38
2022-08-09T04:24:04.436Z,13.38
2022-08-09T04:25:05.022Z,13.38
2022-08-09T04:26:03.942Z,13.38
2022-08-09T04:27:03.979Z,13.38
2022-08-09T04:28:04.010Z,13.38
2022-08-09T04:29:09.827Z,13.44
2022-08-09T04:30:04.073Z,13.44
2022-08-09T04:31:05.633Z,13.44
2022-08-09T04:32:04.242Z,13.44
2022-08-09T04:33:04.221Z,13.44
2022-08-09T04:34:04.504Z,13.56
2022-08-09T04:35:04.498Z,13.62
2022-08-09T04:36:03.787Z,13.75
2022-08-09T04:37:03.720Z,13.94
2022-08-09T04:38:03.955Z,14.06
2022-08-09T04:39:04.410Z,14.25
2022-08-09T04:40:09.112Z,14.38
2022-08-09T04:41:04.467Z,14.56
2022-08-09T04:42:04.413Z,14.75
2022-08-09T04:43:03.948Z,14.94
2022-08-09T04:44:06.146Z,15.12
2022-08-09T04:45:04.010Z,15.31
2022-08-09T04:46:04.060Z,15.50
2022-08-09T04:47:04.433Z,15.69
2022-08-09T04:48:08.063Z,15.88
2022-08-09T04:49:04.157Z,16.06
2022-08-09T04:50:04.454Z,16.31
2022-08-09T04:51:04.518Z,16.50
2022-08-09T04:52:04.471Z,16.75
2022-08-09T04:53:03.893Z,16.94
2022-08-09T04:55:04.184Z,17.38
2022-08-09T04:56:03.675Z,17.56
2022-08-09T04:57:04.104Z,17.75
2022-08-09T04:58:09.374Z,18.00
2022-08-09T04:59:07.841Z,18.25
2022-08-09T05:00:04.180Z,18.44
2022-08-09T05:01:04.138Z,18.69
2022-08-09T05:02:04.365Z,19.00
2022-08-09T05:03:12.951Z,19.25
2022-08-09T05:04:03.790Z,19.50
2022-08-09T05:05:04.400Z,19.81
2022-08-09T05:06:04.674Z,20.12
2022-08-09T05:07:04.054Z,20.50
2022-08-09T05:08:03.985Z,20.88
2022-08-09T05:09:04.263Z,21.25
2022-08-09T05:10:04.297Z,21.62
2022-08-09T05:11:06.639Z,22.00
2022-08-09T05:12:03.654Z,22.38
2022-08-09T05:13:03.760Z,22.75
2022-08-09T05:14:05.655Z,23.19
2022-08-09T05:15:11.306Z,23.56
2022-08-09T05:16:03.699Z,24.00
2022-08-09T05:17:03.942Z,24.44
2022-08-09T05:18:37.203Z,24.94
2022-08-09T05:19:02.806Z,25.31
2022-08-09T05:20:03.668Z,25.75
2022-08-09T05:21:09.685Z,26.12
2022-08-09T05:22:03.820Z,26.56
2022-08-09T05:23:51.278Z,26.94
2022-08-09T05:24:04.801Z,27.25
2022-08-09T05:25:03.959Z,27.69
2022-08-09T05:26:04.284Z,28.06
2022-08-09T05:27:04.445Z,28.44
2022-08-09T05:28:04.474Z,28.81
2022-08-09T05:29:03.623Z,29.12
2022-08-09T05:30:03.507Z,29.38
2022-08-09T05:31:07.450Z,29.69
2022-08-09T05:32:03.687Z,30.00
2022-08-09T05:33:03.783Z,30.19
2022-08-09T05:34:03.834Z,30.44
2022-08-09T05:35:03.836Z,30.69
2022-08-09T05:36:03.844Z,30.81
2022-08-09T05:37:05.054Z,31.06
2022-08-09T05:38:04.171Z,31.25
2022-08-09T05:39:04.274Z,31.44
2022-08-09T05:40:04.627Z,31.62
2022-08-09T05:41:04.380Z,31.88
2022-08-09T05:42:05.975Z,32.06
2022-08-09T05:43:03.772Z,32.25
2022-08-09T05:44:03.703Z,32.38
2022-08-09T05:45:03.965Z,32.56
2022-08-09T05:46:03.931Z,32.69
2022-08-09T05:47:05.102Z,32.88
2022-08-09T05:48:04.069Z,33.00
2022-08-09T05:49:04.170Z,33.12
2022-08-09T05:50:16.868Z,33.25
2022-08-09T05:51:17.090Z,33.44
2022-08-09T05:52:03.854Z,33.56
2022-08-09T05:53:04.132Z,33.69
2022-08-09T05:54:04.300Z,33.88
2022-08-09T05:55:07.104Z,33.94
2022-08-09T05:56:04.399Z,34.06
2022-08-09T05:57:03.919Z,34.19
2022-08-09T05:58:04.158Z,34.25
2022-08-09T05:59:04.219Z,34.38
2022-08-09T06:00:04.204Z,34.50
2022-08-09T06:01:04.060Z,34.62
2022-08-09T06:02:04.363Z,34.62
2022-08-09T06:03:10.536Z,34.75
2022-08-09T06:04:05.423Z,34.75
2022-08-09T06:05:04.310Z,34.75
2022-08-09T06:06:06.051Z,34.88
2022-08-09T06:07:04.383Z,35.00
2022-08-09T06:08:05.120Z,34.94
2022-08-09T06:09:05.460Z,35.00
2022-08-09T06:10:04.085Z,35.06
2022-08-09T06:11:16.207Z,35.00
2022-08-09T06:12:04.018Z,35.06
2022-08-09T06:13:04.604Z,35.06
2022-08-09T06:14:04.492Z,35.00
2022-08-09T06:15:08.183Z,35.00
2022-08-09T06:16:04.586Z,35.00
2022-08-09T06:17:05.144Z,35.00
2022-08-09T06:18:03.738Z,35.06
2022-08-09T06:19:03.709Z,34.94
2022-08-09T06:20:03.610Z,34.81
2022-08-09T06:21:04.189Z,34.81
2022-08-09T06:22:03.687Z,34.81
2022-08-09T06:23:03.745Z,34.75
2022-08-09T06:24:03.835Z,34.69
2022-08-09T06:25:03.849Z,34.56
2022-08-09T06:26:03.854Z,34.31
2022-08-09T06:27:04.006Z,34.25
2022-08-09T06:28:04.087Z,34.19
2022-08-09T06:29:04.908Z,34.06
2022-08-09T06:30:04.747Z,34.00
2022-08-09T06:31:04.378Z,33.88
2022-08-09T06:32:09.073Z,33.69
2022-08-09T06:33:13.465Z,33.69
2022-08-09T06:34:03.875Z,33.56
2022-08-09T06:35:06.270Z,33.44
2022-08-09T06:36:04.112Z,33.44
2022-08-09T06:37:04.007Z,33.44
2022-08-09T06:38:05.582Z,33.50
2022-08-09T06:39:09.087Z,33.50
2022-08-09T06:40:17.839Z,33.56
2022-08-09T06:41:04.341Z,33.50
2022-08-09T06:42:08.389Z,33.56
2022-08-09T06:43:04.402Z,33.56
2022-08-09T06:44:04.386Z,33.62
2022-08-09T06:45:09.274Z,33.62
2022-08-09T06:46:03.622Z,33.69
2022-08-09T06:47:03.688Z,33.75
2022-08-09T06:48:03.600Z,33.81
2022-08-09T06:49:03.617Z,33.88
2022-08-09T06:50:12.425Z,33.94
2022-08-09T06:51:04.358Z,34.00
2022-08-09T06:52:03.702Z,34.00
2022-08-09T06:53:04.030Z,34.06
2022-08-09T06:54:04.098Z,34.06
2022-08-09T06:55:06.688Z,34.06
2022-08-09T06:56:04.159Z,34.00
2022-08-09T06:57:04.176Z,34.06
2022-08-09T06:58:04.297Z,34.19
2022-08-09T07:00:53.194Z,34.31
2022-08-09T07:00:53.232Z,34.25
2022-08-09T07:01:03.273Z,34.25
2022-08-09T07:02:05.041Z,34.25
2022-08-09T07:03:05.443Z,34.31
2022-08-09T07:04:04.545Z,34.31
2022-08-09T07:05:03.529Z,34.31
2022-08-09T07:06:05.261Z,34.38
2022-08-09T07:07:04.660Z,34.44
2022-08-09T07:08:03.656Z,34.50
2022-08-09T07:09:03.622Z,34.50
2022-08-09T07:10:12.746Z,34.50
2022-08-09T07:11:03.807Z,34.56
2022-08-09T07:12:03.838Z,34.56
2022-08-09T07:13:05.434Z,34.56
2022-08-09T07:14:04.630Z,34.62
2022-08-09T07:15:53.529Z,34.69
2022-08-09T07:16:40.098Z,34.69
2022-08-09T07:17:03.609Z,34.75
2022-08-09T07:18:03.606Z,34.75
2022-08-09T07:19:03.625Z,34.69
2022-08-09T07:20:03.534Z,34.75
2022-08-09T07:21:03.944Z,34.75
2022-08-09T07:22:04.067Z,34.75
2022-08-09T07:23:04.008Z,34.75
2022-08-09T07:24:04.909Z,34.75
2022-08-09T07:25:05.229Z,34.81
2022-08-09T07:26:04.304Z,34.81
2022-08-09T07:27:04.167Z,34.81
2022-08-09T07:28:04.452Z,34.81
2022-08-09T07:29:09.492Z,34.81
2022-08-09T07:30:04.246Z,34.81
2022-08-09T07:31:04.347Z,34.81
2022-08-09T07:32:04.236Z,34.81
2022-08-09T07:33:10.229Z,34.81
2022-08-09T07:34:04.575Z,34.81
2022-08-09T07:35:08.356Z,34.81
2022-08-09T07:36:03.680Z,34.88
2022-08-09T07:37:03.816Z,34.81
2022-08-09T07:38:03.773Z,34.81
2022-08-09T07:39:04.090Z,34.88
2022-08-09T07:40:04.073Z,34.81
2022-08-09T07:41:11.311Z,34.81
2022-08-09T07:42:04.016Z,34.88
2022-08-09T07:43:04.163Z,34.81
2022-08-09T07:44:04.166Z,34.88
2022-08-09T07:45:06.600Z,34.88
2022-08-09T07:46:04.148Z,34.94
2022-08-09T07:47:04.388Z,34.94
2022-08-09T07:48:04.972Z,34.94
2022-08-09T07:49:03.523Z,34.88
2022-08-09T07:50:05.713Z,34.94
2022-08-09T07:51:10.391Z,35.00
2022-08-09T07:52:09.868Z,34.94
2022-08-09T07:53:04.436Z,34.94
2022-08-09T07:54:04.643Z,34.94
2022-08-09T07:55:03.925Z,34.88
2022-08-09T07:56:05.983Z,34.88
2022-08-09T07:57:03.754Z,34.88
2022-08-09T07:58:03.866Z,34.88
2022-08-09T07:59:07.543Z,34.88
2022-08-09T08:00:04.306Z,34.94
2022-08-09T08:01:06.506Z,34.94
2022-08-09T08:02:04.925Z,34.88
2022-08-09T08:03:04.963Z,34.88
2022-08-09T08:04:03.510Z,34.94
2022-08-09T08:05:03.636Z,34.94
2022-08-09T08:06:03.506Z,34.94
2022-08-09T08:07:09.705Z,34.94
2022-08-09T08:08:06.830Z,34.94
2022-08-09T08:09:05.231Z,34.94
2022-08-09T08:10:08.494Z,34.94
2022-08-09T08:12:09.543Z,34.88
2022-08-09T08:12:11.890Z,34.88
2022-08-09T08:13:04.098Z,34.81
2022-08-09T08:14:04.784Z,34.81
2022-08-09T08:15:04.584Z,34.88
2022-08-09T08:16:04.391Z,34.81
2022-08-09T08:17:07.920Z,34.75
2022-08-09T08:18:04.485Z,34.75
2022-08-09T08:19:04.505Z,34.75
2022-08-09T08:20:03.701Z,34.75
2022-08-09T08:21:03.806Z,34.69
2022-08-09T08:22:03.712Z,34.69
2022-08-09T08:23:07.053Z,34.56
2022-08-09T08:24:11.678Z,34.50
2022-08-09T08:25:04.064Z,34.38
2022-08-09T08:26:06.725Z,34.31
2022-08-09T08:27:04.233Z,34.31
2022-08-09T08:28:04.410Z,34.31
2022-08-09T08:29:03.710Z,34.31
2022-08-09T08:30:04.469Z,34.31
2022-08-09T08:31:10.786Z,34.31
2022-08-09T08:32:05.691Z,34.31
2022-08-09T08:33:04.415Z,34.25
2022-08-09T08:34:03.999Z,34.12
2022-08-09T08:35:04.045Z,34.06
2022-08-09T08:36:04.213Z,34.06
2022-08-09T08:37:04.152Z,33.88
2022-08-09T08:38:04.946Z,33.62
2022-08-09T08:39:04.288Z,33.44
2022-08-09T08:40:04.294Z,33.19
2022-08-09T08:41:05.562Z,32.94
2022-08-09T08:42:04.479Z,32.94
2022-08-09T08:43:08.905Z,32.94
2022-08-09T08:44:03.751Z,32.94
2022-08-09T08:45:11.621Z,32.94
2022-08-09T08:46:17.128Z,32.94
2022-08-09T08:47:04.719Z,33.00
2022-08-09T08:48:03.947Z,33.00
2022-08-09T08:49:04.138Z,33.06
2022-08-09T08:50:04.244Z,33.00
2022-08-09T08:51:04.154Z,32.94
2022-08-09T08:52:10.180Z,32.62
2022-08-09T08:53:04.507Z,32.50
2022-08-09T08:54:04.854Z,32.31
2022-08-09T08:55:05.418Z,32.12
2022-08-09T08:56:03.520Z,32.06
2022-08-09T08:57:03.505Z,32.06
2022-08-09T08:58:03.919Z,32.00
2022-08-09T08:59:07.851Z,31.94
2022-08-09T09:00:08.054Z,31.81
2022-08-09T09:01:08.779Z,31.62
2022-08-09T09:02:04.026Z,31.44
2022-08-09T09:03:08.450Z,31.31
2022-08-09T09:04:04.079Z,31.06
2022-08-09T09:05:06.319Z,31.00
2022-08-09T09:06:04.452Z,30.88
2022-08-09T09:07:04.437Z,30.81
2022-08-09T09:08:04.491Z,30.75
2022-08-09T09:09:06.611Z,30.69
2022-08-09T09:10:05.180Z,30.56
2022-08-09T09:11:03.975Z,30.50
2022-08-09T09:12:06.584Z,30.50
2022-08-09T09:13:09.208Z,30.25
2022-08-09T09:14:04.218Z,30.12
2022-08-09T09:15:05.550Z,29.88
2022-08-09T09:16:04.479Z,29.88
2022-08-09T09:17:04.255Z,29.94
2022-08-09T09:18:04.541Z,30.00
2022-08-09T09:19:29.298Z,30.00
2022-08-09T09:20:03.933Z,30.00
2022-08-09T09:21:03.946Z,29.94
2022-08-09T09:22:05.368Z,30.00
2022-08-09T09:23:04.172Z,30.00
2022-08-09T09:24:04.790Z,30.00
2022-08-09T09:26:02.829Z,29.88
2022-08-09T09:26:11.783Z,29.75
2022-08-09T09:27:04.330Z,29.75
2022-08-09T09:28:07.748Z,29.69
2022-08-09T09:29:10.980Z,29.75
2022-08-09T09:30:08.745Z,29.75
2022-08-09T09:31:03.769Z,29.81
2022-08-09T09:32:06.828Z,29.81
2022-08-09T09:33:14.235Z,29.88
2022-08-09T09:34:04.095Z,29.88
2022-08-09T09:35:07.463Z,29.88
2022-08-09T09:36:11.952Z,29.75
2022-08-09T09:37:04.426Z,29.50
2022-08-09T09:38:04.520Z,29.38
2022-08-09T09:39:03.700Z,29.31
2022-08-09T09:40:03.871Z,29.25
2022-08-09T09:41:04.425Z,29.25
2022-08-09T09:42:06.539Z,29.31
2022-08-09T09:43:03.932Z,29.38
2022-08-09T09:44:11.311Z,29.44
2022-08-09T09:45:04.473Z,29.44
2022-08-09T09:47:04.520Z,29.12
2022-08-09T09:48:03.628Z,29.00
2022-08-09T09:49:03.883Z,29.06
2022-08-09T09:50:13.323Z,29.00
2022-08-09T09:51:03.996Z,28.88
2022-08-09T09:52:04.186Z,28.88
2022-08-09T09:53:04.277Z,28.88
2022-08-09T09:54:08.419Z,28.94
2022-08-09T09:55:08.032Z,28.94
2022-08-09T09:56:03.995Z,28.88
2022-08-09T09:58:01.856Z,28.81
2022-08-09T09:58:17.606Z,28.81
2022-08-09T09:59:03.785Z,28.81
2022-08-09T10:00:04.239Z,28.88
2022-08-09T10:01:04.165Z,28.94
2022-08-09T10:02:04.178Z,29.00
2022-08-09T10:03:09.303Z,28.94
2022-08-09T10:04:08.832Z,28.81
2022-08-09T10:05:06.587Z,28.69
2022-08-09T10:06:04.925Z,28.62
2022-08-09T10:07:05.078Z,28.50
2022-08-09T10:08:11.195Z,28.44
2022-08-09T10:09:11.641Z,28.44
2022-08-09T10:10:04.262Z,28.38
2022-08-09T10:11:19.101Z,28.31
2022-08-09T10:12:12.614Z,28.25
2022-08-09T10:13:04.804Z,28.25
2022-08-09T10:14:03.747Z,28.31
2022-08-09T10:15:03.838Z,28.38
2022-08-09T10:16:09.419Z,28.31
2022-08-09T10:17:11.726Z,28.31
2022-08-09T10:18:04.441Z,28.38
2022-08-09T10:19:04.224Z,28.38
2022-08-09T10:20:03.537Z,28.44
2022-08-09T10:21:03.541Z,28.44
2022-08-09T10:22:03.524Z,28.56
2022-08-09T10:23:03.638Z,28.62
2022-08-09T10:24:04.144Z,28.56
2022-08-09T10:25:06.998Z,28.56
2022-08-09T10:26:04.556Z,28.50
2022-08-09T10:27:05.474Z,28.44
2022-08-09T10:28:03.851Z,28.31
2022-08-09T10:29:13.659Z,28.19
2022-08-09T10:30:29.784Z,28.25
2022-08-09T10:33:04.234Z,28.19
2022-08-09T10:34:05.359Z,28.31
2022-08-09T10:35:04.332Z,28.31
2022-08-09T10:36:04.405Z,28.31
2022-08-09T10:37:03.889Z,28.44
2022-08-09T10:38:03.766Z,28.50
2022-08-09T10:39:05.924Z,28.56
2022-08-09T10:40:04.432Z,28.50
2022-08-09T10:41:04.294Z,28.44
2022-08-09T10:42:04.378Z,28.31
2022-08-09T10:43:04.358Z,28.25
2022-08-09T10:44:04.310Z,28.19
2022-08-09T10:45:04.522Z,28.12
2022-08-09T10:46:03.871Z,28.19
2022-08-09T10:47:04.175Z,28.25
2022-08-09T10:48:12.917Z,28.25
2022-08-09T10:49:03.767Z,28.25
2022-08-09T10:50:03.867Z,28.25
2022-08-09T10:51:03.831Z,28.19
2022-08-09T10:52:03.938Z,28.25
2022-08-09T10:53:03.998Z,28.25
2022-08-09T10:54:04.927Z,28.25
2022-08-09T10:55:03.999Z,28.25
2022-08-09T10:56:04.342Z,28.25
2022-08-09T10:57:04.101Z,28.25
2022-08-09T10:58:04.133Z,28.25
2022-08-09T10:59:04.114Z,28.25
2022-08-09T11:00:04.016Z,28.25
2022-08-09T11:01:11.292Z,28.25
2022-08-09T11:03:05.775Z,28.25
2022-08-09T11:03:15.383Z,28.31
2022-08-09T11:04:06.143Z,28.44
2022-08-09T11:05:03.618Z,28.50
2022-08-09T11:06:03.821Z,28.50
2022-08-09T11:07:03.695Z,28.56
2022-08-09T11:08:03.705Z,28.56
2022-08-09T11:09:15.656Z,28.44
2022-08-09T11:10:03.763Z,28.38
2022-08-09T11:11:09.012Z,28.38
2022-08-09T11:12:05.105Z,28.25
2022-08-09T11:13:04.154Z,28.19
2022-08-09T11:14:04.318Z,28.12
2022-08-09T11:15:04.341Z,28.00
2022-08-09T11:16:05.030Z,28.06
2022-08-09T11:17:04.394Z,28.06
2022-08-09T11:18:04.475Z,28.12
2022-08-09T11:19:08.133Z,28.12
2022-08-09T11:20:07.765Z,28.06
2022-08-09T11:21:03.588Z,28.12
2022-08-09T11:22:05.660Z,28.19
2022-08-09T11:23:07.056Z,28.25
2022-08-09T11:24:04.177Z,28.31
2022-08-09T11:25:03.708Z,28.44
2022-08-09T11:26:03.976Z,28.56
2022-08-09T11:27:03.753Z,28.56
2022-08-09T11:28:14.568Z,28.62
2022-08-09T11:29:03.675Z,28.56
2022-08-09T11:30:05.429Z,28.62
2022-08-09T11:31:03.685Z,28.56
2022-08-09T11:32:04.142Z,28.50
2022-08-09T11:33:03.749Z,28.56
2022-08-09T11:34:03.671Z,28.62
2022-08-09T11:35:03.745Z,28.56
2022-08-09T11:36:03.870Z,28.62
2022-08-09T11:37:07.283Z,28.62
2022-08-09T11:38:04.092Z,28.56
2022-08-09T11:39:04.285Z,28.62
2022-08-09T11:40:04.318Z,28.69
2022-08-09T11:41:04.387Z,28.69
2022-08-09T11:42:04.306Z,28.62
2022-08-09T11:43:03.647Z,28.44
2022-08-09T11:44:03.543Z,28.44
2022-08-09T11:45:03.613Z,28.44
2022-08-09T11:46:03.602Z,28.44
2022-08-09T11:47:03.606Z,28.31
2022-08-09T11:48:06.640Z,28.31
2022-08-09T11:49:05.082Z,28.31
2022-08-09T11:50:54.612Z,28.38
2022-08-09T11:51:19.670Z,28.44
2022-08-09T11:52:57.178Z,28.38
2022-08-09T11:53:16.097Z,28.31
2022-08-09T11:54:05.232Z,28.19
2022-08-09T11:55:04.028Z,28.19
2022-08-09T11:56:04.096Z,28.25
2022-08-09T11:57:04.157Z,28.31
2022-08-09T11:58:05.827Z,28.38
2022-08-09T11:59:04.387Z,28.38
2022-08-09T12:00:04.581Z,28.44
2022-08-09T12:01:03.442Z,28.44
2022-08-09T12:02:16.793Z,28.44
2022-08-09T12:03:09.717Z,28.50
2022-08-09T12:04:04.065Z,28.50
2022-08-09T12:05:04.267Z,28.56
2022-08-09T12:06:04.160Z,28.50
2022-08-09T12:07:04.175Z,28.44
2022-08-09T12:08:04.279Z,28.44
2022-08-09T12:09:04.400Z,28.44
2022-08-09T12:10:04.538Z,28.44
2022-08-09T12:11:03.644Z,28.44
2022-08-09T12:12:04.138Z,28.44
2022-08-09T12:14:06.851Z,28.31
2022-08-09T12:14:08.817Z,28.31
2022-08-09T12:15:08.417Z,28.25
2022-08-09T12:16:03.888Z,28.25
2022-08-09T12:17:03.852Z,28.19
2022-08-09T12:18:03.523Z,28.19
2022-08-09T12:19:03.521Z,28.25
2022-08-09T12:20:04.479Z,28.31
2022-08-09T12:21:03.826Z,28.25
2022-08-09T12:22:03.682Z,28.25
2022-08-09T12:23:03.773Z,28.25
2022-08-09T12:24:09.306Z,28.25
2022-08-09T12:25:03.842Z,28.31
2022-08-09T12:26:03.925Z,28.44
2022-08-09T12:29:00.758Z,28.56
2022-08-09T12:29:01.110Z,28.56
2022-08-09T12:29:15.831Z,28.56
2022-08-09T12:30:35.879Z,28.50
2022-08-09T12:31:10.658Z,28.50
2022-08-09T12:32:03.611Z,28.50
2022-08-09T12:33:04.174Z,28.50
2022-08-09T12:34:04.147Z,28.44
2022-08-09T12:35:04.665Z,28.44
2022-08-09T12:36:04.509Z,28.50
2022-08-09T12:37:09.681Z,28.44
2022-08-09T12:38:04.478Z,28.50
2022-08-09T12:39:04.332Z,28.56
2022-08-09T12:40:03.688Z,28.62
2022-08-09T12:41:03.800Z,28.62
2022-08-09T12:42:03.693Z,28.62
2022-08-09T12:43:03.708Z,28.69
2022-08-09T12:44:04.791Z,28.69
2022-08-09T12:45:03.858Z,28.75
2022-08-09T12:46:03.934Z,28.75
2022-08-09T12:47:04.791Z,28.81
2022-08-09T12:48:03.915Z,28.81
2022-08-09T12:49:03.995Z,28.81
2022-08-09T12:50:04.147Z,28.81
2022-08-09T12:51:04.617Z,28.81
2022-08-09T12:52:04.515Z,28.81
2022-08-09T12:53:09.709Z,28.75
2022-08-09T12:54:03.715Z,28.69
2022-08-09T12:56:13.196Z,28.56
2022-08-09T12:56:13.562Z,28.56
2022-08-09T12:57:03.667Z,28.44